Vores vejrinfo findes også på:

UK Metoffice

European Weather Network

Weather Underground



Stationer ""tæt på"" METAR Rapporter

   
EKEB - Esbjerg, Denmark
Afstand fra denne vejrstation: NNV 29 km
Opdateret: 28-02-2020 06:50
Klart  
Klart  
   Vind fra: Vest 5.7 m/s
Vind fra: Vest 5.7 m/s
Temperatur: 3°C
Chill faktor: -2°C
Dugpunkt: 1°C
Luftfugtighed: 87%
Barometer: 1005 hPa
Skyer: Klart
Sigtbarhed: More than 10 km
Sky detaljer: Klart
EKEB 280550Z AUTO 27011KT 9999 NCD 03/01 Q1005
EKSP - Skrydstrup(Dan-A, Denmark
Afstand fra denne vejrstation: Ø 35 km
Opdateret: 28-02-2020 06:50
Få skyer  
Få skyer  
   Vind fra: Vest 4.6 m/s
Vind fra: Vest 4.6 m/s
Temperatur: 1°C
Chill faktor: -3°C
Dugpunkt: 0°C
Luftfugtighed: 93%
Barometer: 1005 hPa
Skyer: Få skyer
Sigtbarhed: More than 10 km
Sky detaljer: Få skyer 4000 ft
EKSP 280550Z 26009KT 9999 FEW040 01/M00 Q1005 TEMPO 5000 SHRASN FEW020CB
EKBI - Billund Airport, Denmark
Afstand fra denne vejrstation: NNØ 56 km
Opdateret: 28-02-2020 06:50
Mest overskyet  
Mest overskyet  
   Vind fra: VSV 4.6 m/s
Vind fra: VSV 4.6 m/s
Temperatur: 2°C
Chill faktor: -2°C
Dugpunkt: 1°C
Luftfugtighed: 93%
Barometer: 1004 hPa
Skyer: Mest overskyet
Sigtbarhed: More than 10 km
Sky detaljer: Få skyer 2000 ft,
Mest overskyet 3000 ft
EKBI 280550Z 25009KT 9999 FEW020CB BKN030 02/01 Q1004
EKSB - Sonderborg Airpo, Denmark
Afstand fra denne vejrstation: ØSØ 76 km
Opdateret: 28-02-2020 06:50
Delvis overskyet  
Delvis overskyet  
   Vind fra: Vest 4.6 m/s
Vind fra: Vest 4.6 m/s
Temperatur: 3°C
Chill faktor: -1°C
Dugpunkt: 1°C
Luftfugtighed: 87%
Barometer: 1005 hPa
Skyer: Delvis overskyet
Sigtbarhed: More than 10 km
Sky detaljer: Delvis overskyet 1500 ft,
Delvis overskyet 2000 ft
EKSB 280550Z 27009KT 230V300 9999 SCT015 SCT020TCU 03/01 Q1005
EKVD - Vamdrup (aut/man), Denmark
Afstand fra denne vejrstation: ØNØ 41 km
Opdateret: 28-02-2020 06:50
  
  
   Vind fra: Vest 4.1 m/s
Vind fra: Vest 4.1 m/s
Temperatur: 2°C
Chill faktor: -2°C
Dugpunkt: 1°C
Luftfugtighed: 93%
Barometer: 1004 hPa
EKVD 280550Z AUTO 26008KT //// ///////// 02/01 Q1004
EDXW - Westerland/Sylt, Germany
Afstand fra denne vejrstation: SSV 47 km
Opdateret: 27-02-2020 18:20
Data er IKKE opdaterede!
Delvis overskyet  
Delvis overskyet  
   Vind fra: svinger 0.5 m/s
Vind fra: svinger 0.5 m/s
Skyer: Delvis overskyet
Sigtbarhed: More than 10 km
Sky detaljer: Delvis overskyet 1300 ft
EDXW 271720Z VRB01KT 9999 SCT013 02/// Q0997 RERA

Original script by  Saratoga-weather.org Adapted for the template by  Weerstation Leuven

Der anvendes følgende:

Vejrstation
Davis VP2

Vejrprogram
Meteohub

Server
RaspberryPI 3 model B

Davis VP2

Meteohub

RaspberryPI 3 model B